sensor_id;sensor_type;location;lat;lon;timestamp;temperature;humidity
46217;DHT22;47258;59.424;13.482;2023-06-04T00:02:21;24.10;58.80
46217;DHT22;47258;59.424;13.482;2023-06-04T00:04:48;24.10;58.80
46217;DHT22;47258;59.424;13.482;2023-06-04T00:07:15;24.10;59.40
46217;DHT22;47258;59.424;13.482;2023-06-04T00:09:42;24.10;58.90
46217;DHT22;47258;59.424;13.482;2023-06-04T00:12:12;24.10;59.10
46217;DHT22;47258;59.424;13.482;2023-06-04T00:14:40;24.10;58.90
46217;DHT22;47258;59.424;13.482;2023-06-04T00:17:08;24.10;59.00
46217;DHT22;47258;59.424;13.482;2023-06-04T00:19:37;24.10;59.10
46217;DHT22;47258;59.424;13.482;2023-06-04T00:22:05;24.10;59.20
46217;DHT22;47258;59.424;13.482;2023-06-04T00:24:32;24.10;59.10
46217;DHT22;47258;59.424;13.482;2023-06-04T00:26:59;24.10;59.20
46217;DHT22;47258;59.424;13.482;2023-06-04T00:29:26;24.10;59.20
46217;DHT22;47258;59.424;13.482;2023-06-04T00:31:55;24.10;59.10
46217;DHT22;47258;59.424;13.482;2023-06-04T00:34:22;24.10;59.30
46217;DHT22;47258;59.424;13.482;2023-06-04T00:36:49;24.10;59.30
46217;DHT22;47258;59.424;13.482;2023-06-04T00:39:16;24.10;59.60
46217;DHT22;47258;59.424;13.482;2023-06-04T00:41:43;24.10;59.70
46217;DHT22;47258;59.424;13.482;2023-06-04T00:44:10;24.10;59.80
46217;DHT22;47258;59.424;13.482;2023-06-04T00:46:37;24.10;59.90
46217;DHT22;47258;59.424;13.482;2023-06-04T00:49:06;24.00;60.00
46217;DHT22;47258;59.424;13.482;2023-06-04T00:51:34;24.00;60.10
46217;DHT22;47258;59.424;13.482;2023-06-04T00:54:03;24.00;60.20
46217;DHT22;47258;59.424;13.482;2023-06-04T00:56:35;24.00;60.20
46217;DHT22;47258;59.424;13.482;2023-06-04T00:59:03;24.00;60.50
46217;DHT22;47258;59.424;13.482;2023-06-04T01:01:36;24.00;60.70
46217;DHT22;47258;59.424;13.482;2023-06-04T01:04:12;24.00;60.50
46217;DHT22;47258;59.424;13.482;2023-06-04T01:06:43;24.00;60.90
46217;DHT22;47258;59.424;13.482;2023-06-04T01:09:10;24.00;60.90
46217;DHT22;47258;59.424;13.482;2023-06-04T01:11:39;24.00;60.70
46217;DHT22;47258;59.424;13.482;2023-06-04T01:14:08;24.00;60.60
46217;DHT22;47258;59.424;13.482;2023-06-04T01:16:36;24.00;60.40
46217;DHT22;47258;59.424;13.482;2023-06-04T01:19:22;24.00;59.60
46217;DHT22;47258;59.424;13.482;2023-06-04T01:21:52;24.00;60.00
46217;DHT22;47258;59.424;13.482;2023-06-04T01:24:22;23.90;60.10
46217;DHT22;47258;59.424;13.482;2023-06-04T01:26:52;23.90;61.10
46217;DHT22;47258;59.424;13.482;2023-06-04T01:29:22;23.90;60.40
46217;DHT22;47258;59.424;13.482;2023-06-04T01:31:50;23.90;60.30
46217;DHT22;47258;59.424;13.482;2023-06-04T01:34:20;23.90;60.40
46217;DHT22;47258;59.424;13.482;2023-06-04T01:36:47;23.90;60.30
46217;DHT22;47258;59.424;13.482;2023-06-04T01:39:14;23.90;60.30
46217;DHT22;47258;59.424;13.482;2023-06-04T01:41:41;23.90;60.20
46217;DHT22;47258;59.424;13.482;2023-06-04T01:44:08;23.90;60.00
46217;DHT22;47258;59.424;13.482;2023-06-04T01:46:35;23.90;60.00
46217;DHT22;47258;59.424;13.482;2023-06-04T01:49:03;23.90;60.00
46217;DHT22;47258;59.424;13.482;2023-06-04T01:51:33;23.90;60.10
46217;DHT22;47258;59.424;13.482;2023-06-04T01:54:00;23.90;60.00
46217;DHT22;47258;59.424;13.482;2023-06-04T01:56:27;23.90;59.90
46217;DHT22;47258;59.424;13.482;2023-06-04T01:58:55;23.90;60.00
46217;DHT22;47258;59.424;13.482;2023-06-04T02:01:22;23.90;59.90
46217;DHT22;47258;59.424;13.482;2023-06-04T02:03:49;23.90;59.90
46217;DHT22;47258;59.424;13.482;2023-06-04T02:06:16;23.90;59.90
46217;DHT22;47258;59.424;13.482;2023-06-04T02:08:45;23.90;60.00
46217;DHT22;47258;59.424;13.482;2023-06-04T02:11:12;23.80;60.10
46217;DHT22;47258;59.424;13.482;2023-06-04T02:13:39;23.90;60.00
46217;DHT22;47258;59.424;13.482;2023-06-04T02:16:06;23.90;60.00
46217;DHT22;47258;59.424;13.482;2023-06-04T02:18:33;23.80;59.90
46217;DHT22;47258;59.424;13.482;2023-06-04T02:21:00;23.80;60.00
46217;DHT22;47258;59.424;13.482;2023-06-04T02:23:27;23.80;60.20
46217;DHT22;47258;59.424;13.482;2023-06-04T02:25:56;23.80;60.10
46217;DHT22;47258;59.424;13.482;2023-06-04T02:28:23;23.80;60.30
46217;DHT22;47258;59.424;13.482;2023-06-04T02:30:51;23.80;60.00
46217;DHT22;47258;59.424;13.482;2023-06-04T02:33:18;23.80;60.00
46217;DHT22;47258;59.424;13.482;2023-06-04T02:35:46;23.80;59.80
46217;DHT22;47258;59.424;13.482;2023-06-04T02:38:13;23.80;59.70
46217;DHT22;47258;59.424;13.482;2023-06-04T02:40:41;23.80;59.60
46217;DHT22;47258;59.424;13.482;2023-06-04T02:43:10;23.80;59.50
46217;DHT22;47258;59.424;13.482;2023-06-04T02:45:37;23.70;59.50
46217;DHT22;47258;59.424;13.482;2023-06-04T02:48:04;23.80;59.60
46217;DHT22;47258;59.424;13.482;2023-06-04T02:50:31;23.70;59.60
46217;DHT22;47258;59.424;13.482;2023-06-04T02:52:58;23.70;59.70
46217;DHT22;47258;59.424;13.482;2023-06-04T02:55:25;23.70;59.70
46217;DHT22;47258;59.424;13.482;2023-06-04T02:57:52;23.70;59.60
46217;DHT22;47258;59.424;13.482;2023-06-04T03:00:21;23.70;59.60
46217;DHT22;47258;59.424;13.482;2023-06-04T03:02:48;23.70;59.50
46217;DHT22;47258;59.424;13.482;2023-06-04T03:05:16;23.70;59.40
46217;DHT22;47258;59.424;13.482;2023-06-04T03:07:45;23.70;59.30
46217;DHT22;47258;59.424;13.482;2023-06-04T03:10:13;23.70;59.30
46217;DHT22;47258;59.424;13.482;2023-06-04T03:12:41;23.70;59.20
46217;DHT22;47258;59.424;13.482;2023-06-04T03:15:09;23.70;59.10
46217;DHT22;47258;59.424;13.482;2023-06-04T03:17:38;23.70;59.20
46217;DHT22;47258;59.424;13.482;2023-06-04T03:20:06;23.70;59.30
46217;DHT22;47258;59.424;13.482;2023-06-04T03:22:34;23.70;59.30
46217;DHT22;47258;59.424;13.482;2023-06-04T03:25:02;23.70;59.50
46217;DHT22;47258;59.424;13.482;2023-06-04T03:27:30;23.70;59.60
46217;DHT22;47258;59.424;13.482;2023-06-04T03:29:58;23.70;59.90
46217;DHT22;47258;59.424;13.482;2023-06-04T03:32:25;23.70;59.80
46217;DHT22;47258;59.424;13.482;2023-06-04T03:34:54;23.70;59.90
46217;DHT22;47258;59.424;13.482;2023-06-04T03:37:21;23.70;60.00
46217;DHT22;47258;59.424;13.482;2023-06-04T03:39:48;23.70;59.90
46217;DHT22;47258;59.424;13.482;2023-06-04T03:42:15;23.70;59.90
46217;DHT22;47258;59.424;13.482;2023-06-04T03:44:42;23.70;59.70
46217;DHT22;47258;59.424;13.482;2023-06-04T03:47:09;23.70;59.70
46217;DHT22;47258;59.424;13.482;2023-06-04T03:49:36;23.70;59.60
46217;DHT22;47258;59.424;13.482;2023-06-04T03:52:05;23.70;59.70
46217;DHT22;47258;59.424;13.482;2023-06-04T03:54:32;23.70;59.70
46217;DHT22;47258;59.424;13.482;2023-06-04T03:57:00;23.70;59.60
46217;DHT22;47258;59.424;13.482;2023-06-04T03:59:27;23.70;59.60
46217;DHT22;47258;59.424;13.482;2023-06-04T04:01:54;23.70;59.60
46217;DHT22;47258;59.424;13.482;2023-06-04T04:04:21;23.70;59.70
46217;DHT22;47258;59.424;13.482;2023-06-04T04:06:48;23.70;59.60
46217;DHT22;47258;59.424;13.482;2023-06-04T04:09:18;23.70;59.70
46217;DHT22;47258;59.424;13.482;2023-06-04T04:11:45;23.70;59.70
46217;DHT22;47258;59.424;13.482;2023-06-04T04:14:12;23.70;59.50
46217;DHT22;47258;59.424;13.482;2023-06-04T04:16:39;23.70;59.50
46217;DHT22;47258;59.424;13.482;2023-06-04T04:19:06;23.70;59.30
46217;DHT22;47258;59.424;13.482;2023-06-04T04:21:34;23.70;59.30
46217;DHT22;47258;59.424;13.482;2023-06-04T04:24:03;23.70;59.30
46217;DHT22;47258;59.424;13.482;2023-06-04T04:26:32;23.70;59.20
46217;DHT22;47258;59.424;13.482;2023-06-04T04:28:59;23.70;59.10
46217;DHT22;47258;59.424;13.482;2023-06-04T04:31:27;23.70;59.00
46217;DHT22;47258;59.424;13.482;2023-06-04T04:33:55;23.70;59.00
46217;DHT22;47258;59.424;13.482;2023-06-04T04:36:22;23.70;59.00
46217;DHT22;47258;59.424;13.482;2023-06-04T04:38:49;23.70;58.90
46217;DHT22;47258;59.424;13.482;2023-06-04T04:41:19;23.70;58.70
46217;DHT22;47258;59.424;13.482;2023-06-04T04:43:52;23.70;58.60
46217;DHT22;47258;59.424;13.482;2023-06-04T04:46:19;23.70;58.50
46217;DHT22;47258;59.424;13.482;2023-06-04T04:48:46;23.70;58.40
46217;DHT22;47258;59.424;13.482;2023-06-04T04:51:13;23.70;58.40
46217;DHT22;47258;59.424;13.482;2023-06-04T04:53:40;23.80;58.40
46217;DHT22;47258;59.424;13.482;2023-06-04T04:56:08;23.80;58.30
46217;DHT22;47258;59.424;13.482;2023-06-04T04:58:35;23.80;58.30
46217;DHT22;47258;59.424;13.482;2023-06-04T05:01:04;23.80;58.10
46217;DHT22;47258;59.424;13.482;2023-06-04T05:03:31;23.90;58.10
46217;DHT22;47258;59.424;13.482;2023-06-04T05:05:58;23.90;58.10
46217;DHT22;47258;59.424;13.482;2023-06-04T05:08:25;23.90;58.10
46217;DHT22;47258;59.424;13.482;2023-06-04T05:10:52;23.90;58.20
46217;DHT22;47258;59.424;13.482;2023-06-04T05:13:19;23.90;58.30
46217;DHT22;47258;59.424;13.482;2023-06-04T05:15:48;23.90;58.20
46217;DHT22;47258;59.424;13.482;2023-06-04T05:18:19;23.90;58.10
46217;DHT22;47258;59.424;13.482;2023-06-04T05:20:47;23.90;58.70
46217;DHT22;47258;59.424;13.482;2023-06-04T05:23:14;23.90;58.20
46217;DHT22;47258;59.424;13.482;2023-06-04T05:25:41;23.90;58.20
46217;DHT22;47258;59.424;13.482;2023-06-04T05:28:08;23.90;58.70
46217;DHT22;47258;59.424;13.482;2023-06-04T05:30:36;23.90;58.00
46217;DHT22;47258;59.424;13.482;2023-06-04T05:33:07;23.90;57.90
46217;DHT22;47258;59.424;13.482;2023-06-04T05:35:36;23.90;57.80
46217;DHT22;47258;59.424;13.482;2023-06-04T05:38:06;24.00;57.90
46217;DHT22;47258;59.424;13.482;2023-06-04T05:40:34;24.00;57.60
46217;DHT22;47258;59.424;13.482;2023-06-04T05:43:01;24.00;57.50
46217;DHT22;47258;59.424;13.482;2023-06-04T05:45:28;24.00;57.60
46217;DHT22;47258;59.424;13.482;2023-06-04T05:47:55;24.00;57.70
46217;DHT22;47258;59.424;13.482;2023-06-04T05:50:22;24.10;58.20
46217;DHT22;47258;59.424;13.482;2023-06-04T05:52:50;24.10;57.40
46217;DHT22;47258;59.424;13.482;2023-06-04T05:55:17;24.10;57.20
46217;DHT22;47258;59.424;13.482;2023-06-04T05:57:45;24.20;57.20
46217;DHT22;47258;59.424;13.482;2023-06-04T06:00:12;24.20;57.20
46217;DHT22;47258;59.424;13.482;2023-06-04T06:02:40;24.20;57.30
46217;DHT22;47258;59.424;13.482;2023-06-04T06:05:07;24.30;57.40
46217;DHT22;47258;59.424;13.482;2023-06-04T06:07:34;24.40;57.30
46217;DHT22;47258;59.424;13.482;2023-06-04T06:10:04;24.40;57.20
46217;DHT22;47258;59.424;13.482;2023-06-04T06:12:31;24.50;57.20
46217;DHT22;47258;59.424;13.482;2023-06-04T06:14:58;24.50;57.10
46217;DHT22;47258;59.424;13.482;2023-06-04T06:17:25;24.60;57.10
46217;DHT22;47258;59.424;13.482;2023-06-04T06:19:54;24.60;57.00
46217;DHT22;47258;59.424;13.482;2023-06-04T06:22:21;24.70;57.60
46217;DHT22;47258;59.424;13.482;2023-06-04T06:24:48;24.70;56.90
46217;DHT22;47258;59.424;13.482;2023-06-04T06:27:17;24.70;56.90
46217;DHT22;47258;59.424;13.482;2023-06-04T06:29:44;24.80;56.70
46217;DHT22;47258;59.424;13.482;2023-06-04T06:32:11;24.80;55.70
46217;DHT22;47258;59.424;13.482;2023-06-04T06:34:38;24.80;55.10
46217;DHT22;47258;59.424;13.482;2023-06-04T06:37:06;24.90;54.80
46217;DHT22;47258;59.424;13.482;2023-06-04T06:39:34;24.90;54.70
46217;DHT22;47258;59.424;13.482;2023-06-04T06:42:01;24.90;54.50
46217;DHT22;47258;59.424;13.482;2023-06-04T06:44:29;24.90;54.40
46217;DHT22;47258;59.424;13.482;2023-06-04T06:46:56;25.00;54.40
46217;DHT22;47258;59.424;13.482;2023-06-04T06:49:23;25.00;54.00
46217;DHT22;47258;59.424;13.482;2023-06-04T06:51:51;25.00;53.90
46217;DHT22;47258;59.424;13.482;2023-06-04T06:54:18;25.00;53.90
46217;DHT22;47258;59.424;13.482;2023-06-04T06:56:47;25.00;53.80
46217;DHT22;47258;59.424;13.482;2023-06-04T06:59:16;25.00;53.70
46217;DHT22;47258;59.424;13.482;2023-06-04T07:01:45;25.10;53.70
46217;DHT22;47258;59.424;13.482;2023-06-04T07:04:12;25.00;53.60
46217;DHT22;47258;59.424;13.482;2023-06-04T07:06:40;25.10;53.90
46217;DHT22;47258;59.424;13.482;2023-06-04T07:09:07;25.10;53.80
46217;DHT22;47258;59.424;13.482;2023-06-04T07:11:35;25.10;53.70
46217;DHT22;47258;59.424;13.482;2023-06-04T07:14:02;25.10;53.50
46217;DHT22;47258;59.424;13.482;2023-06-04T07:16:29;25.20;53.40
46217;DHT22;47258;59.424;13.482;2023-06-04T07:18:58;25.20;53.20
46217;DHT22;47258;59.424;13.482;2023-06-04T07:21:25;25.20;53.10
46217;DHT22;47258;59.424;13.482;2023-06-04T07:23:52;25.20;53.00
46217;DHT22;47258;59.424;13.482;2023-06-04T07:26:19;25.20;52.90
46217;DHT22;47258;59.424;13.482;2023-06-04T07:28:46;25.20;52.80
46217;DHT22;47258;59.424;13.482;2023-06-04T07:31:15;25.30;52.90
46217;DHT22;47258;59.424;13.482;2023-06-04T07:33:42;25.30;52.60
46217;DHT22;47258;59.424;13.482;2023-06-04T07:36:12;25.30;52.10
46217;DHT22;47258;59.424;13.482;2023-06-04T07:38:40;25.30;51.30
46217;DHT22;47258;59.424;13.482;2023-06-04T07:41:07;25.30;51.50
46217;DHT22;47258;59.424;13.482;2023-06-04T07:43:35;25.30;51.70
46217;DHT22;47258;59.424;13.482;2023-06-04T07:46:02;25.30;52.40
46217;DHT22;47258;59.424;13.482;2023-06-04T07:48:29;25.30;52.00
46217;DHT22;47258;59.424;13.482;2023-06-04T07:50:57;25.30;52.00
46217;DHT22;47258;59.424;13.482;2023-06-04T07:53:26;25.30;52.00
46217;DHT22;47258;59.424;13.482;2023-06-04T07:55:53;25.30;51.90
46217;DHT22;47258;59.424;13.482;2023-06-04T07:58:20;25.30;51.80
46217;DHT22;47258;59.424;13.482;2023-06-04T08:00:48;25.40;51.90
46217;DHT22;47258;59.424;13.482;2023-06-04T08:03:15;25.40;51.90
46217;DHT22;47258;59.424;13.482;2023-06-04T08:05:42;25.40;52.20
46217;DHT22;47258;59.424;13.482;2023-06-04T08:08:09;25.40;52.80
46217;DHT22;47258;59.424;13.482;2023-06-04T08:10:39;25.40;52.10
46217;DHT22;47258;59.424;13.482;2023-06-04T08:13:06;25.40;51.80
46217;DHT22;47258;59.424;13.482;2023-06-04T08:15:34;25.40;51.70
46217;DHT22;47258;59.424;13.482;2023-06-04T08:18:01;25.40;51.80
46217;DHT22;47258;59.424;13.482;2023-06-04T08:20:28;25.40;52.10
46217;DHT22;47258;59.424;13.482;2023-06-04T08:22:55;25.40;52.20
46217;DHT22;47258;59.424;13.482;2023-06-04T08:25:22;25.40;52.40
46217;DHT22;47258;59.424;13.482;2023-06-04T08:27:51;25.40;52.40
46217;DHT22;47258;59.424;13.482;2023-06-04T08:30:19;25.40;52.50
46217;DHT22;47258;59.424;13.482;2023-06-04T08:32:46;25.40;52.50
46217;DHT22;47258;59.424;13.482;2023-06-04T08:35:13;25.40;53.30
46217;DHT22;47258;59.424;13.482;2023-06-04T08:37:40;25.50;52.80
46217;DHT22;47258;59.424;13.482;2023-06-04T08:40:08;25.50;51.40
46217;DHT22;47258;59.424;13.482;2023-06-04T08:42:40;25.40;50.40
46217;DHT22;47258;59.424;13.482;2023-06-04T08:45:11;25.30;49.80
46217;DHT22;47258;59.424;13.482;2023-06-04T08:47:40;25.30;48.90
46217;DHT22;47258;59.424;13.482;2023-06-04T08:50:10;25.20;48.40
46217;DHT22;47258;59.424;13.482;2023-06-04T08:52:39;25.10;48.50
46217;DHT22;47258;59.424;13.482;2023-06-04T08:55:09;25.00;48.40
46217;DHT22;47258;59.424;13.482;2023-06-04T08:57:38;25.00;48.40
46217;DHT22;47258;59.424;13.482;2023-06-04T09:00:06;25.00;48.40
46217;DHT22;47258;59.424;13.482;2023-06-04T09:02:36;24.90;48.50
46217;DHT22;47258;59.424;13.482;2023-06-04T09:05:05;24.90;48.60
46217;DHT22;47258;59.424;13.482;2023-06-04T09:07:35;24.80;48.30
46217;DHT22;47258;59.424;13.482;2023-06-04T09:10:04;24.80;48.50
46217;DHT22;47258;59.424;13.482;2023-06-04T09:12:32;24.80;48.40
46217;DHT22;47258;59.424;13.482;2023-06-04T09:15:00;24.70;48.20
46217;DHT22;47258;59.424;13.482;2023-06-04T09:17:27;24.70;48.10
46217;DHT22;47258;59.424;13.482;2023-06-04T09:19:56;24.70;48.10
46217;DHT22;47258;59.424;13.482;2023-06-04T09:22:32;24.60;48.30
46217;DHT22;47258;59.424;13.482;2023-06-04T09:24:59;24.60;48.40
46217;DHT22;47258;59.424;13.482;2023-06-04T09:27:26;24.60;48.50
46217;DHT22;47258;59.424;13.482;2023-06-04T09:29:56;24.50;48.10
46217;DHT22;47258;59.424;13.482;2023-06-04T09:32:23;24.50;48.00
46217;DHT22;47258;59.424;13.482;2023-06-04T09:34:50;24.50;48.10
46217;DHT22;47258;59.424;13.482;2023-06-04T09:37:20;24.50;48.10
46217;DHT22;47258;59.424;13.482;2023-06-04T09:39:52;24.50;47.90
46217;DHT22;47258;59.424;13.482;2023-06-04T09:42:20;24.50;48.00
46217;DHT22;47258;59.424;13.482;2023-06-04T09:44:48;24.40;47.90
46217;DHT22;47258;59.424;13.482;2023-06-04T09:47:15;24.40;48.00
46217;DHT22;47258;59.424;13.482;2023-06-04T09:49:43;24.40;47.80
46217;DHT22;47258;59.424;13.482;2023-06-04T09:52:10;24.40;47.50
46217;DHT22;47258;59.424;13.482;2023-06-04T09:54:41;24.40;47.60
46217;DHT22;47258;59.424;13.482;2023-06-04T09:57:14;24.40;48.10
46217;DHT22;47258;59.424;13.482;2023-06-04T09:59:43;24.40;47.40
46217;DHT22;47258;59.424;13.482;2023-06-04T10:02:12;24.40;47.70
46217;DHT22;47258;59.424;13.482;2023-06-04T10:04:41;24.30;47.40
46217;DHT22;47258;59.424;13.482;2023-06-04T10:07:09;24.30;47.50
46217;DHT22;47258;59.424;13.482;2023-06-04T10:09:39;24.30;48.30
46217;DHT22;47258;59.424;13.482;2023-06-04T10:12:13;24.20;48.20
46217;DHT22;47258;59.424;13.482;2023-06-04T10:14:47;24.20;48.70
46217;DHT22;47258;59.424;13.482;2023-06-04T10:17:21;24.20;48.10
46217;DHT22;47258;59.424;13.482;2023-06-04T10:19:51;24.20;48.30
46217;DHT22;47258;59.424;13.482;2023-06-04T10:22:19;24.20;47.60
46217;DHT22;47258;59.424;13.482;2023-06-04T10:24:48;24.10;47.70
46217;DHT22;47258;59.424;13.482;2023-06-04T10:27:17;24.10;47.70
46217;DHT22;47258;59.424;13.482;2023-06-04T10:29:45;24.10;48.00
46217;DHT22;47258;59.424;13.482;2023-06-04T10:32:13;24.10;48.30
46217;DHT22;47258;59.424;13.482;2023-06-04T10:34:40;24.10;48.50
46217;DHT22;47258;59.424;13.482;2023-06-04T10:37:18;24.10;48.60
46217;DHT22;47258;59.424;13.482;2023-06-04T10:39:52;24.10;48.80
46217;DHT22;47258;59.424;13.482;2023-06-04T10:42:19;24.10;48.90
46217;DHT22;47258;59.424;13.482;2023-06-04T10:44:48;24.10;48.90
46217;DHT22;47258;59.424;13.482;2023-06-04T10:47:20;24.10;48.90
46217;DHT22;47258;59.424;13.482;2023-06-04T10:49:48;24.10;48.80
46217;DHT22;47258;59.424;13.482;2023-06-04T10:52:16;24.10;48.90
46217;DHT22;47258;59.424;13.482;2023-06-04T10:54:45;24.10;48.90
46217;DHT22;47258;59.424;13.482;2023-06-04T10:57:16;24.00;48.80
46217;DHT22;47258;59.424;13.482;2023-06-04T10:59:53;24.00;48.70
46217;DHT22;47258;59.424;13.482;2023-06-04T11:02:21;24.00;48.70
46217;DHT22;47258;59.424;13.482;2023-06-04T11:04:59;24.00;48.70
46217;DHT22;47258;59.424;13.482;2023-06-04T11:07:40;24.00;48.60
46217;DHT22;47258;59.424;13.482;2023-06-04T11:10:09;24.00;48.60
46217;DHT22;47258;59.424;13.482;2023-06-04T11:12:45;24.00;48.60
46217;DHT22;47258;59.424;13.482;2023-06-04T11:15:13;24.00;48.60
46217;DHT22;47258;59.424;13.482;2023-06-04T11:17:51;24.00;48.80
46217;DHT22;47258;59.424;13.482;2023-06-04T11:20:19;24.00;48.70
46217;DHT22;47258;59.424;13.482;2023-06-04T11:22:51;24.00;48.80
46217;DHT22;47258;59.424;13.482;2023-06-04T11:25:19;24.00;48.80
46217;DHT22;47258;59.424;13.482;2023-06-04T11:27:49;24.00;48.90
46217;DHT22;47258;59.424;13.482;2023-06-04T11:30:17;24.00;49.30
46217;DHT22;47258;59.424;13.482;2023-06-04T11:32:44;24.00;49.60
46217;DHT22;47258;59.424;13.482;2023-06-04T11:35:11;24.00;49.40
46217;DHT22;47258;59.424;13.482;2023-06-04T11:37:38;24.00;49.10
46217;DHT22;47258;59.424;13.482;2023-06-04T11:40:15;24.00;49.00
46217;DHT22;47258;59.424;13.482;2023-06-04T11:42:44;24.00;48.80
46217;DHT22;47258;59.424;13.482;2023-06-04T11:45:13;24.00;48.70
46217;DHT22;47258;59.424;13.482;2023-06-04T11:47:43;24.00;48.60
46217;DHT22;47258;59.424;13.482;2023-06-04T11:50:11;24.00;48.50
46217;DHT22;47258;59.424;13.482;2023-06-04T11:52:39;23.90;48.40
46217;DHT22;47258;59.424;13.482;2023-06-04T11:55:08;23.90;48.40
46217;DHT22;47258;59.424;13.482;2023-06-04T11:57:36;23.90;48.30
46217;DHT22;47258;59.424;13.482;2023-06-04T12:00:05;23.90;48.30
46217;DHT22;47258;59.424;13.482;2023-06-04T12:02:36;23.90;48.20
46217;DHT22;47258;59.424;13.482;2023-06-04T12:05:13;23.90;48.20
46217;DHT22;47258;59.424;13.482;2023-06-04T12:07:40;23.90;48.30
46217;DHT22;47258;59.424;13.482;2023-06-04T12:10:08;23.80;48.40
46217;DHT22;47258;59.424;13.482;2023-06-04T12:12:35;23.80;48.50
46217;DHT22;47258;59.424;13.482;2023-06-04T12:15:03;23.80;48.40
46217;DHT22;47258;59.424;13.482;2023-06-04T12:17:31;23.80;48.50
46217;DHT22;47258;59.424;13.482;2023-06-04T12:20:00;23.80;48.60
46217;DHT22;47258;59.424;13.482;2023-06-04T12:22:27;23.80;48.40
46217;DHT22;47258;59.424;13.482;2023-06-04T12:24:55;23.80;48.30
46217;DHT22;47258;59.424;13.482;2023-06-04T12:27:24;23.70;48.10
46217;DHT22;47258;59.424;13.482;2023-06-04T12:29:57;23.70;48.00
46217;DHT22;47258;59.424;13.482;2023-06-04T12:32:24;23.70;48.00
46217;DHT22;47258;59.424;13.482;2023-06-04T12:34:51;23.70;48.00
46217;DHT22;47258;59.424;13.482;2023-06-04T12:37:20;23.70;47.90
46217;DHT22;47258;59.424;13.482;2023-06-04T12:39:47;23.70;47.90
46217;DHT22;47258;59.424;13.482;2023-06-04T12:42:14;23.70;48.00
46217;DHT22;47258;59.424;13.482;2023-06-04T12:44:42;23.70;48.00
46217;DHT22;47258;59.424;13.482;2023-06-04T12:47:09;23.70;48.00
46217;DHT22;47258;59.424;13.482;2023-06-04T12:49:36;23.70;48.10
46217;DHT22;47258;59.424;13.482;2023-06-04T12:52:04;23.70;48.10
46217;DHT22;47258;59.424;13.482;2023-06-04T12:54:32;23.70;48.20
46217;DHT22;47258;59.424;13.482;2023-06-04T12:57:00;23.70;48.30
46217;DHT22;47258;59.424;13.482;2023-06-04T12:59:28;23.70;48.60
46217;DHT22;47258;59.424;13.482;2023-06-04T13:01:55;23.70;48.70
46217;DHT22;47258;59.424;13.482;2023-06-04T13:04:22;23.70;48.70
46217;DHT22;47258;59.424;13.482;2023-06-04T13:06:50;23.70;48.70
46217;DHT22;47258;59.424;13.482;2023-06-04T13:09:21;23.70;48.80
46217;DHT22;47258;59.424;13.482;2023-06-04T13:11:50;23.80;49.00
46217;DHT22;47258;59.424;13.482;2023-06-04T13:14:17;23.80;49.00
46217;DHT22;47258;59.424;13.482;2023-06-04T13:16:44;23.80;49.00
46217;DHT22;47258;59.424;13.482;2023-06-04T13:19:14;23.80;49.00
46217;DHT22;47258;59.424;13.482;2023-06-04T13:21:41;23.80;49.10
46217;DHT22;47258;59.424;13.482;2023-06-04T13:24:10;23.90;49.10
46217;DHT22;47258;59.424;13.482;2023-06-04T13:26:37;23.90;49.00
46217;DHT22;47258;59.424;13.482;2023-06-04T13:29:09;23.90;49.00
46217;DHT22;47258;59.424;13.482;2023-06-04T13:31:36;23.90;49.10
46217;DHT22;47258;59.424;13.482;2023-06-04T13:34:04;23.90;49.20
46217;DHT22;47258;59.424;13.482;2023-06-04T13:36:31;23.90;49.10
46217;DHT22;47258;59.424;13.482;2023-06-04T13:38:58;23.90;49.20
46217;DHT22;47258;59.424;13.482;2023-06-04T13:41:26;23.90;49.10
46217;DHT22;47258;59.424;13.482;2023-06-04T13:43:53;23.90;49.20
46217;DHT22;47258;59.424;13.482;2023-06-04T13:46:21;23.90;49.30
46217;DHT22;47258;59.424;13.482;2023-06-04T13:48:49;24.00;49.50
46217;DHT22;47258;59.424;13.482;2023-06-04T13:51:16;24.00;49.50
46217;DHT22;47258;59.424;13.482;2023-06-04T13:53:43;24.00;49.60
46217;DHT22;47258;59.424;13.482;2023-06-04T13:56:10;24.00;49.60
46217;DHT22;47258;59.424;13.482;2023-06-04T13:58:38;24.00;49.60
46217;DHT22;47258;59.424;13.482;2023-06-04T14:01:05;24.10;49.70
46217;DHT22;47258;59.424;13.482;2023-06-04T14:03:33;24.10;49.70
46217;DHT22;47258;59.424;13.482;2023-06-04T14:06:01;24.10;49.70
46217;DHT22;47258;59.424;13.482;2023-06-04T14:08:28;24.10;49.80
46217;DHT22;47258;59.424;13.482;2023-06-04T14:10:55;24.10;49.80
46217;DHT22;47258;59.424;13.482;2023-06-04T14:13:23;24.10;50.00
46217;DHT22;47258;59.424;13.482;2023-06-04T14:15:50;24.10;50.00
46217;DHT22;47258;59.424;13.482;2023-06-04T14:18:17;24.20;50.80
46217;DHT22;47258;59.424;13.482;2023-06-04T14:20:46;24.20;50.30
46217;DHT22;47258;59.424;13.482;2023-06-04T14:23:13;24.20;50.30
46217;DHT22;47258;59.424;13.482;2023-06-04T14:25:40;24.20;50.20
46217;DHT22;47258;59.424;13.482;2023-06-04T14:28:07;24.20;50.20
46217;DHT22;47258;59.424;13.482;2023-06-04T14:30:34;24.20;50.20
46217;DHT22;47258;59.424;13.482;2023-06-04T14:33:02;24.20;50.20
46217;DHT22;47258;59.424;13.482;2023-06-04T14:35:29;24.30;50.20
46217;DHT22;47258;59.424;13.482;2023-06-04T14:37:58;24.30;50.20
46217;DHT22;47258;59.424;13.482;2023-06-04T14:40:25;24.30;50.10
46217;DHT22;47258;59.424;13.482;2023-06-04T14:42:52;24.30;50.10
46217;DHT22;47258;59.424;13.482;2023-06-04T14:45:19;24.30;50.10
46217;DHT22;47258;59.424;13.482;2023-06-04T14:47:46;24.40;50.10
46217;DHT22;47258;59.424;13.482;2023-06-04T14:50:16;24.40;50.00
46217;DHT22;47258;59.424;13.482;2023-06-04T14:52:44;24.40;50.00
46217;DHT22;47258;59.424;13.482;2023-06-04T14:55:13;24.40;50.00
46217;DHT22;47258;59.424;13.482;2023-06-04T14:57:40;24.40;49.90
46217;DHT22;47258;59.424;13.482;2023-06-04T15:00:07;24.40;50.00
46217;DHT22;47258;59.424;13.482;2023-06-04T15:02:34;24.40;49.90
46217;DHT22;47258;59.424;13.482;2023-06-04T15:05:02;24.40;49.80
46217;DHT22;47258;59.424;13.482;2023-06-04T15:07:29;24.40;49.70
46217;DHT22;47258;59.424;13.482;2023-06-04T15:09:56;24.40;49.70
46217;DHT22;47258;59.424;13.482;2023-06-04T15:12:25;24.40;49.70
46217;DHT22;47258;59.424;13.482;2023-06-04T15:14:52;24.40;49.70
46217;DHT22;47258;59.424;13.482;2023-06-04T15:17:19;24.40;49.60
46217;DHT22;47258;59.424;13.482;2023-06-04T15:19:46;24.40;49.60
46217;DHT22;47258;59.424;13.482;2023-06-04T15:22:13;24.40;50.10